sensor_id;sensor_type;location;lat;lon;timestamp;P1;durP1;ratioP1;P2;durP2;ratioP2
54235;SDS011;40151;43.606;1.472;2023-02-21T00:00:06;5.00;;;2.72;;
54235;SDS011;40151;43.606;1.472;2023-02-21T00:02:50;5.68;;;3.25;;
54235;SDS011;40151;43.606;1.472;2023-02-21T00:05:34;5.78;;;3.70;;
54235;SDS011;40151;43.606;1.472;2023-02-21T00:08:18;4.97;;;3.15;;
54235;SDS011;40151;43.606;1.472;2023-02-21T00:11:03;5.95;;;3.50;;
54235;SDS011;40151;43.606;1.472;2023-02-21T00:13:47;6.40;;;3.42;;
54235;SDS011;40151;43.606;1.472;2023-02-21T00:16:31;5.28;;;2.95;;
54235;SDS011;40151;43.606;1.472;2023-02-21T00:19:15;5.63;;;3.13;;
54235;SDS011;40151;43.606;1.472;2023-02-21T00:21:59;5.75;;;3.20;;
54235;SDS011;40151;43.606;1.472;2023-02-21T00:24:43;5.22;;;3.40;;
54235;SDS011;40151;43.606;1.472;2023-02-21T00:27:27;5.85;;;3.20;;
54235;SDS011;40151;43.606;1.472;2023-02-21T00:30:11;5.75;;;3.22;;
54235;SDS011;40151;43.606;1.472;2023-02-21T00:32:55;6.53;;;3.50;;
54235;SDS011;40151;43.606;1.472;2023-02-21T00:35:38;7.15;;;3.83;;
54235;SDS011;40151;43.606;1.472;2023-02-21T00:38:22;5.75;;;3.38;;
54235;SDS011;40151;43.606;1.472;2023-02-21T00:41:06;5.53;;;3.38;;
54235;SDS011;40151;43.606;1.472;2023-02-21T00:43:51;4.25;;;3.20;;
54235;SDS011;40151;43.606;1.472;2023-02-21T00:46:34;5.70;;;3.28;;
54235;SDS011;40151;43.606;1.472;2023-02-21T00:49:18;4.93;;;3.35;;
54235;SDS011;40151;43.606;1.472;2023-02-21T00:52:02;6.55;;;4.00;;
54235;SDS011;40151;43.606;1.472;2023-02-21T00:54:47;6.15;;;3.80;;
54235;SDS011;40151;43.606;1.472;2023-02-21T00:57:30;6.28;;;3.60;;
54235;SDS011;40151;43.606;1.472;2023-02-21T01:00:19;5.68;;;3.63;;
54235;SDS011;40151;43.606;1.472;2023-02-21T01:03:05;6.15;;;3.95;;
54235;SDS011;40151;43.606;1.472;2023-02-21T01:05:49;7.50;;;3.97;;
54235;SDS011;40151;43.606;1.472;2023-02-21T01:08:34;7.05;;;4.30;;
54235;SDS011;40151;43.606;1.472;2023-02-21T01:11:19;6.25;;;4.50;;
54235;SDS011;40151;43.606;1.472;2023-02-21T01:14:05;7.03;;;5.35;;
54235;SDS011;40151;43.606;1.472;2023-02-21T01:16:50;7.68;;;4.70;;
54235;SDS011;40151;43.606;1.472;2023-02-21T01:19:34;9.02;;;5.10;;
54235;SDS011;40151;43.606;1.472;2023-02-21T01:22:18;7.18;;;5.15;;
54235;SDS011;40151;43.606;1.472;2023-02-21T01:25:03;8.35;;;4.80;;
54235;SDS011;40151;43.606;1.472;2023-02-21T01:27:48;8.85;;;5.25;;
54235;SDS011;40151;43.606;1.472;2023-02-21T01:30:32;8.60;;;5.10;;
54235;SDS011;40151;43.606;1.472;2023-02-21T01:33:15;7.15;;;5.20;;
54235;SDS011;40151;43.606;1.472;2023-02-21T01:35:59;8.63;;;5.10;;
54235;SDS011;40151;43.606;1.472;2023-02-21T01:38:43;7.55;;;5.07;;
54235;SDS011;40151;43.606;1.472;2023-02-21T01:41:27;6.72;;;5.03;;
54235;SDS011;40151;43.606;1.472;2023-02-21T01:44:28;7.57;;;4.80;;
54235;SDS011;40151;43.606;1.472;2023-02-21T01:47:13;6.60;;;4.80;;
54235;SDS011;40151;43.606;1.472;2023-02-21T01:49:58;7.25;;;5.07;;
54235;SDS011;40151;43.606;1.472;2023-02-21T01:52:44;7.43;;;5.00;;
54235;SDS011;40151;43.606;1.472;2023-02-21T01:55:30;9.00;;;5.53;;
54235;SDS011;40151;43.606;1.472;2023-02-21T01:58:15;7.22;;;5.65;;
54235;SDS011;40151;43.606;1.472;2023-02-21T02:01:00;7.63;;;4.45;;
54235;SDS011;40151;43.606;1.472;2023-02-21T02:03:44;7.13;;;5.10;;
54235;SDS011;40151;43.606;1.472;2023-02-21T02:06:28;7.43;;;5.15;;
54235;SDS011;40151;43.606;1.472;2023-02-21T02:09:14;8.10;;;5.57;;
54235;SDS011;40151;43.606;1.472;2023-02-21T02:32:00;8.30;;;5.57;;
54235;SDS011;40151;43.606;1.472;2023-02-21T02:35:08;9.27;;;5.88;;
54235;SDS011;40151;43.606;1.472;2023-02-21T02:37:44;7.93;;;5.95;;
54235;SDS011;40151;43.606;1.472;2023-02-21T02:43:29;8.82;;;6.03;;
54235;SDS011;40151;43.606;1.472;2023-02-21T02:48:44;7.60;;;5.72;;
54235;SDS011;40151;43.606;1.472;2023-02-21T02:51:13;9.73;;;5.80;;
54235;SDS011;40151;43.606;1.472;2023-02-21T02:53:40;7.97;;;5.97;;
54235;SDS011;40151;43.606;1.472;2023-02-21T02:56:07;8.65;;;6.35;;
54235;SDS011;40151;43.606;1.472;2023-02-21T02:58:39;9.43;;;6.53;;
54235;SDS011;40151;43.606;1.472;2023-02-21T03:14:59;7.43;;;5.53;;
54235;SDS011;40151;43.606;1.472;2023-02-21T03:17:42;9.30;;;6.07;;
54235;SDS011;40151;43.606;1.472;2023-02-21T03:20:12;7.97;;;5.80;;
54235;SDS011;40151;43.606;1.472;2023-02-21T03:22:41;8.82;;;6.22;;
54235;SDS011;40151;43.606;1.472;2023-02-21T03:25:09;8.02;;;5.75;;
54235;SDS011;40151;43.606;1.472;2023-02-21T03:27:36;8.32;;;5.57;;
54235;SDS011;40151;43.606;1.472;2023-02-21T03:30:04;9.50;;;6.32;;
54235;SDS011;40151;43.606;1.472;2023-02-21T03:32:33;8.10;;;5.72;;
54235;SDS011;40151;43.606;1.472;2023-02-21T03:35:03;8.13;;;6.25;;
54235;SDS011;40151;43.606;1.472;2023-02-21T03:37:36;6.60;;;5.47;;
54235;SDS011;40151;43.606;1.472;2023-02-21T03:40:03;7.78;;;5.63;;
54235;SDS011;40151;43.606;1.472;2023-02-21T03:42:34;7.88;;;6.30;;
54235;SDS011;40151;43.606;1.472;2023-02-21T03:44:59;7.57;;;5.57;;
54235;SDS011;40151;43.606;1.472;2023-02-21T03:47:25;7.28;;;5.55;;
54235;SDS011;40151;43.606;1.472;2023-02-21T03:49:50;8.02;;;5.80;;
54235;SDS011;40151;43.606;1.472;2023-02-21T03:52:15;7.88;;;6.13;;
54235;SDS011;40151;43.606;1.472;2023-02-21T03:54:41;7.93;;;6.03;;
54235;SDS011;40151;43.606;1.472;2023-02-21T03:57:07;7.95;;;5.68;;
54235;SDS011;40151;43.606;1.472;2023-02-21T03:59:32;8.18;;;5.78;;
54235;SDS011;40151;43.606;1.472;2023-02-21T04:01:58;8.02;;;6.05;;
54235;SDS011;40151;43.606;1.472;2023-02-21T04:04:23;9.00;;;6.10;;
54235;SDS011;40151;43.606;1.472;2023-02-21T04:06:48;7.35;;;5.05;;
54235;SDS011;40151;43.606;1.472;2023-02-21T04:09:14;8.30;;;6.22;;
54235;SDS011;40151;43.606;1.472;2023-02-21T04:11:43;8.02;;;5.80;;
54235;SDS011;40151;43.606;1.472;2023-02-21T04:14:09;7.78;;;6.13;;
54235;SDS011;40151;43.606;1.472;2023-02-21T04:16:35;8.98;;;5.80;;
54235;SDS011;40151;43.606;1.472;2023-02-21T04:19:00;7.13;;;4.95;;
54235;SDS011;40151;43.606;1.472;2023-02-21T04:21:25;7.78;;;5.63;;
54235;SDS011;40151;43.606;1.472;2023-02-21T04:23:51;8.27;;;6.30;;
54235;SDS011;40151;43.606;1.472;2023-02-21T04:26:16;8.38;;;5.93;;
54235;SDS011;40151;43.606;1.472;2023-02-21T04:28:42;7.75;;;5.70;;
54235;SDS011;40151;43.606;1.472;2023-02-21T04:31:07;6.95;;;5.20;;
54235;SDS011;40151;43.606;1.472;2023-02-21T04:33:32;7.05;;;5.63;;
54235;SDS011;40151;43.606;1.472;2023-02-21T04:35:58;6.90;;;5.28;;
54235;SDS011;40151;43.606;1.472;2023-02-21T04:38:23;8.75;;;5.90;;
54235;SDS011;40151;43.606;1.472;2023-02-21T04:40:49;7.53;;;5.28;;
54235;SDS011;40151;43.606;1.472;2023-02-21T04:43:14;8.45;;;5.28;;
54235;SDS011;40151;43.606;1.472;2023-02-21T04:45:39;8.88;;;5.43;;
54235;SDS011;40151;43.606;1.472;2023-02-21T04:48:05;7.78;;;5.80;;
54235;SDS011;40151;43.606;1.472;2023-02-21T04:50:30;6.70;;;5.32;;
54235;SDS011;40151;43.606;1.472;2023-02-21T04:52:56;7.85;;;5.05;;
54235;SDS011;40151;43.606;1.472;2023-02-21T04:55:21;6.75;;;5.07;;
54235;SDS011;40151;43.606;1.472;2023-02-21T04:57:46;7.47;;;5.88;;
54235;SDS011;40151;43.606;1.472;2023-02-21T05:00:12;8.15;;;5.93;;
54235;SDS011;40151;43.606;1.472;2023-02-21T05:02:41;7.47;;;5.50;;
54235;SDS011;40151;43.606;1.472;2023-02-21T05:05:08;6.57;;;5.05;;
54235;SDS011;40151;43.606;1.472;2023-02-21T05:07:33;6.60;;;5.40;;
54235;SDS011;40151;43.606;1.472;2023-02-21T05:09:58;6.95;;;5.28;;
54235;SDS011;40151;43.606;1.472;2023-02-21T05:12:24;7.72;;;5.80;;
54235;SDS011;40151;43.606;1.472;2023-02-21T05:14:49;7.65;;;5.13;;
54235;SDS011;40151;43.606;1.472;2023-02-21T05:17:15;7.28;;;5.25;;
54235;SDS011;40151;43.606;1.472;2023-02-21T05:19:40;7.63;;;5.82;;
54235;SDS011;40151;43.606;1.472;2023-02-21T05:22:06;8.02;;;5.35;;
54235;SDS011;40151;43.606;1.472;2023-02-21T05:24:32;9.77;;;6.20;;
54235;SDS011;40151;43.606;1.472;2023-02-21T05:26:57;7.97;;;6.13;;
54235;SDS011;40151;43.606;1.472;2023-02-21T05:29:23;9.02;;;5.70;;
54235;SDS011;40151;43.606;1.472;2023-02-21T05:31:49;8.60;;;5.78;;
54235;SDS011;40151;43.606;1.472;2023-02-21T05:34:15;7.25;;;5.07;;
54235;SDS011;40151;43.606;1.472;2023-02-21T05:36:43;7.65;;;5.80;;
54235;SDS011;40151;43.606;1.472;2023-02-21T05:39:09;10.05;;;5.90;;
54235;SDS011;40151;43.606;1.472;2023-02-21T05:41:35;6.85;;;5.30;;
54235;SDS011;40151;43.606;1.472;2023-02-21T05:44:01;9.52;;;5.95;;
54235;SDS011;40151;43.606;1.472;2023-02-21T05:46:28;7.00;;;5.07;;
54235;SDS011;40151;43.606;1.472;2023-02-21T05:48:58;7.93;;;5.20;;
54235;SDS011;40151;43.606;1.472;2023-02-21T05:51:25;8.20;;;5.13;;
54235;SDS011;40151;43.606;1.472;2023-02-21T05:53:52;8.50;;;5.78;;
54235;SDS011;40151;43.606;1.472;2023-02-21T05:56:18;6.63;;;4.72;;
54235;SDS011;40151;43.606;1.472;2023-02-21T05:58:45;6.65;;;5.22;;
54235;SDS011;40151;43.606;1.472;2023-02-21T06:01:10;8.23;;;5.53;;
54235;SDS011;40151;43.606;1.472;2023-02-21T06:03:36;7.13;;;5.60;;
54235;SDS011;40151;43.606;1.472;2023-02-21T06:06:02;7.57;;;5.35;;
54235;SDS011;40151;43.606;1.472;2023-02-21T06:08:28;8.73;;;5.43;;
54235;SDS011;40151;43.606;1.472;2023-02-21T06:10:53;8.05;;;5.32;;
54235;SDS011;40151;43.606;1.472;2023-02-21T06:13:19;7.93;;;5.20;;
54235;SDS011;40151;43.606;1.472;2023-02-21T06:15:44;7.15;;;5.07;;
54235;SDS011;40151;43.606;1.472;2023-02-21T06:18:14;7.75;;;5.57;;
54235;SDS011;40151;43.606;1.472;2023-02-21T06:20:40;7.63;;;5.25;;
54235;SDS011;40151;43.606;1.472;2023-02-21T06:23:05;7.68;;;5.35;;
54235;SDS011;40151;43.606;1.472;2023-02-21T06:25:31;7.60;;;5.10;;
54235;SDS011;40151;43.606;1.472;2023-02-21T06:27:56;7.40;;;4.95;;
54235;SDS011;40151;43.606;1.472;2023-02-21T06:30:22;6.88;;;5.20;;
54235;SDS011;40151;43.606;1.472;2023-02-21T06:32:48;7.05;;;5.25;;
54235;SDS011;40151;43.606;1.472;2023-02-21T06:35:13;7.82;;;5.15;;
54235;SDS011;40151;43.606;1.472;2023-02-21T06:37:39;7.57;;;5.50;;
54235;SDS011;40151;43.606;1.472;2023-02-21T06:40:05;8.65;;;5.60;;
54235;SDS011;40151;43.606;1.472;2023-02-21T06:42:31;7.20;;;5.60;;
54235;SDS011;40151;43.606;1.472;2023-02-21T06:44:56;7.13;;;5.18;;
54235;SDS011;40151;43.606;1.472;2023-02-21T06:47:22;8.32;;;5.88;;
54235;SDS011;40151;43.606;1.472;2023-02-21T06:49:47;8.93;;;5.97;;
54235;SDS011;40151;43.606;1.472;2023-02-21T06:52:13;8.02;;;5.53;;
54235;SDS011;40151;43.606;1.472;2023-02-21T06:54:39;7.53;;;5.55;;
54235;SDS011;40151;43.606;1.472;2023-02-21T06:57:05;8.95;;;6.20;;
54235;SDS011;40151;43.606;1.472;2023-02-21T06:59:30;7.22;;;5.85;;
54235;SDS011;40151;43.606;1.472;2023-02-21T07:01:56;6.95;;;5.10;;
54235;SDS011;40151;43.606;1.472;2023-02-21T07:04:22;7.60;;;5.93;;
54235;SDS011;40151;43.606;1.472;2023-02-21T07:06:48;7.75;;;6.10;;
54235;SDS011;40151;43.606;1.472;2023-02-21T07:09:14;7.30;;;5.00;;
54235;SDS011;40151;43.606;1.472;2023-02-21T07:11:40;8.68;;;5.70;;
54235;SDS011;40151;43.606;1.472;2023-02-21T07:14:05;7.45;;;5.50;;
54235;SDS011;40151;43.606;1.472;2023-02-21T07:16:30;8.50;;;5.32;;
54235;SDS011;40151;43.606;1.472;2023-02-21T07:18:56;8.38;;;5.78;;
54235;SDS011;40151;43.606;1.472;2023-02-21T07:21:22;7.20;;;5.88;;
54235;SDS011;40151;43.606;1.472;2023-02-21T07:23:49;9.05;;;5.93;;
54235;SDS011;40151;43.606;1.472;2023-02-21T07:26:15;8.00;;;6.00;;
54235;SDS011;40151;43.606;1.472;2023-02-21T07:28:40;8.52;;;6.03;;
54235;SDS011;40151;43.606;1.472;2023-02-21T07:31:06;9.02;;;6.15;;
54235;SDS011;40151;43.606;1.472;2023-02-21T07:33:32;8.48;;;6.03;;
54235;SDS011;40151;43.606;1.472;2023-02-21T07:35:58;8.80;;;5.75;;
54235;SDS011;40151;43.606;1.472;2023-02-21T07:38:25;9.02;;;5.43;;
54235;SDS011;40151;43.606;1.472;2023-02-21T07:40:57;10.85;;;6.13;;
54235;SDS011;40151;43.606;1.472;2023-02-21T07:43:27;8.07;;;6.28;;
54235;SDS011;40151;43.606;1.472;2023-02-21T07:45:54;8.07;;;5.68;;
54235;SDS011;40151;43.606;1.472;2023-02-21T07:48:20;7.97;;;6.15;;
54235;SDS011;40151;43.606;1.472;2023-02-21T07:50:46;9.30;;;5.88;;
54235;SDS011;40151;43.606;1.472;2023-02-21T07:53:11;7.82;;;6.03;;
54235;SDS011;40151;43.606;1.472;2023-02-21T07:55:39;7.75;;;6.13;;
54235;SDS011;40151;43.606;1.472;2023-02-21T07:58:04;7.05;;;5.38;;
54235;SDS011;40151;43.606;1.472;2023-02-21T08:00:30;7.20;;;5.63;;
54235;SDS011;40151;43.606;1.472;2023-02-21T08:02:56;9.38;;;6.65;;
54235;SDS011;40151;43.606;1.472;2023-02-21T08:05:22;7.88;;;5.80;;
54235;SDS011;40151;43.606;1.472;2023-02-21T08:07:48;7.72;;;5.15;;
54235;SDS011;40151;43.606;1.472;2023-02-21T08:10:18;9.40;;;6.22;;
54235;SDS011;40151;43.606;1.472;2023-02-21T08:12:46;7.00;;;5.72;;
54235;SDS011;40151;43.606;1.472;2023-02-21T08:15:12;8.13;;;5.50;;
54235;SDS011;40151;43.606;1.472;2023-02-21T08:17:37;8.20;;;5.60;;
54235;SDS011;40151;43.606;1.472;2023-02-21T08:20:02;8.00;;;5.80;;
54235;SDS011;40151;43.606;1.472;2023-02-21T08:22:30;7.90;;;5.72;;
54235;SDS011;40151;43.606;1.472;2023-02-21T08:24:55;8.05;;;5.40;;
54235;SDS011;40151;43.606;1.472;2023-02-21T08:27:20;9.18;;;5.80;;
54235;SDS011;40151;43.606;1.472;2023-02-21T08:29:48;8.60;;;6.20;;
54235;SDS011;40151;43.606;1.472;2023-02-21T08:32:15;6.95;;;5.63;;
54235;SDS011;40151;43.606;1.472;2023-02-21T08:34:43;6.57;;;5.18;;
54235;SDS011;40151;43.606;1.472;2023-02-21T08:37:09;7.45;;;5.25;;
54235;SDS011;40151;43.606;1.472;2023-02-21T08:39:44;7.40;;;5.30;;
54235;SDS011;40151;43.606;1.472;2023-02-21T08:42:11;7.25;;;5.13;;
54235;SDS011;40151;43.606;1.472;2023-02-21T08:44:37;8.48;;;5.40;;
54235;SDS011;40151;43.606;1.472;2023-02-21T08:47:03;7.53;;;5.28;;
54235;SDS011;40151;43.606;1.472;2023-02-21T08:49:28;6.38;;;4.70;;
54235;SDS011;40151;43.606;1.472;2023-02-21T08:51:54;8.70;;;5.70;;
54235;SDS011;40151;43.606;1.472;2023-02-21T08:54:19;8.10;;;4.97;;
54235;SDS011;40151;43.606;1.472;2023-02-21T08:56:44;7.70;;;5.07;;
54235;SDS011;40151;43.606;1.472;2023-02-21T08:59:10;8.13;;;5.65;;
54235;SDS011;40151;43.606;1.472;2023-02-21T09:01:35;9.50;;;5.55;;
54235;SDS011;40151;43.606;1.472;2023-02-21T09:04:04;7.53;;;5.03;;
54235;SDS011;40151;43.606;1.472;2023-02-21T09:06:30;8.43;;;5.00;;
54235;SDS011;40151;43.606;1.472;2023-02-21T09:08:56;8.27;;;5.30;;
54235;SDS011;40151;43.606;1.472;2023-02-21T09:11:22;6.18;;;4.70;;
54235;SDS011;40151;43.606;1.472;2023-02-21T09:13:47;8.73;;;5.35;;
54235;SDS011;40151;43.606;1.472;2023-02-21T09:16:13;8.73;;;5.22;;
54235;SDS011;40151;43.606;1.472;2023-02-21T09:18:38;7.15;;;5.45;;
54235;SDS011;40151;43.606;1.472;2023-02-21T09:21:05;9.18;;;6.05;;
54235;SDS011;40151;43.606;1.472;2023-02-21T09:23:31;8.90;;;5.95;;
54235;SDS011;40151;43.606;1.472;2023-02-21T09:25:56;8.05;;;5.45;;
54235;SDS011;40151;43.606;1.472;2023-02-21T09:28:21;6.78;;;5.50;;
54235;SDS011;40151;43.606;1.472;2023-02-21T09:30:47;6.75;;;5.05;;
54235;SDS011;40151;43.606;1.472;2023-02-21T09:33:14;7.15;;;5.22;;
54235;SDS011;40151;43.606;1.472;2023-02-21T09:35:39;7.30;;;4.93;;
54235;SDS011;40151;43.606;1.472;2023-02-21T09:38:05;7.68;;;5.20;;
54235;SDS011;40151;43.606;1.472;2023-02-21T09:42:59;7.10;;;4.82;;
54235;SDS011;40151;43.606;1.472;2023-02-21T09:45:29;7.53;;;5.40;;
54235;SDS011;40151;43.606;1.472;2023-02-21T09:47:58;7.57;;;5.47;;
54235;SDS011;40151;43.606;1.472;2023-02-21T09:50:29;7.68;;;5.25;;
54235;SDS011;40151;43.606;1.472;2023-02-21T09:52:59;8.05;;;4.90;;
54235;SDS011;40151;43.606;1.472;2023-02-21T09:58:02;8.15;;;5.60;;
54235;SDS011;40151;43.606;1.472;2023-02-21T10:00:34;7.85;;;5.10;;
54235;SDS011;40151;43.606;1.472;2023-02-21T10:08:57;8.20;;;5.37;;
54235;SDS011;40151;43.606;1.472;2023-02-21T10:14:05;7.82;;;5.00;;
54235;SDS011;40151;43.606;1.472;2023-02-21T10:21:50;7.85;;;5.15;;
54235;SDS011;40151;43.606;1.472;2023-02-21T10:24:21;7.40;;;5.40;;
54235;SDS011;40151;43.606;1.472;2023-02-21T10:27:11;8.77;;;5.57;;
54235;SDS011;40151;43.606;1.472;2023-02-21T10:29:44;8.43;;;5.65;;
54235;SDS011;40151;43.606;1.472;2023-02-21T10:32:23;10.10;;;5.93;;
54235;SDS011;40151;43.606;1.472;2023-02-21T10:34:49;7.22;;;5.78;;
54235;SDS011;40151;43.606;1.472;2023-02-21T10:37:27;8.52;;;5.88;;
54235;SDS011;40151;43.606;1.472;2023-02-21T10:40:06;8.85;;;6.05;;
54235;SDS011;40151;43.606;1.472;2023-02-21T10:43:02;7.97;;;5.40;;
54235;SDS011;40151;43.606;1.472;2023-02-21T10:45:36;9.50;;;5.68;;
54235;SDS011;40151;43.606;1.472;2023-02-21T10:48:08;8.93;;;5.57;;
54235;SDS011;40151;43.606;1.472;2023-02-21T11:01:17;10.85;;;7.07;;
54235;SDS011;40151;43.606;1.472;2023-02-21T11:03:49;7.80;;;6.10;;
54235;SDS011;40151;43.606;1.472;2023-02-21T11:06:59;8.50;;;6.28;;
54235;SDS011;40151;43.606;1.472;2023-02-21T11:11:59;9.35;;;6.28;;
54235;SDS011;40151;43.606;1.472;2023-02-21T11:27:28;10.23;;;6.53;;
54235;SDS011;40151;43.606;1.472;2023-02-21T11:29:57;8.32;;;6.22;;
54235;SDS011;40151;43.606;1.472;2023-02-21T11:32:30;7.53;;;5.68;;
54235;SDS011;40151;43.606;1.472;2023-02-21T11:35:05;9.38;;;5.75;;
54235;SDS011;40151;43.606;1.472;2023-02-21T11:37:49;7.32;;;5.63;;
54235;SDS011;40151;43.606;1.472;2023-02-21T11:43:17;8.25;;;6.22;;
54235;SDS011;40151;43.606;1.472;2023-02-21T11:48:17;8.27;;;5.85;;
54235;SDS011;40151;43.606;1.472;2023-02-21T11:50:52;8.23;;;6.10;;
54235;SDS011;40151;43.606;1.472;2023-02-21T11:53:22;8.65;;;6.00;;
54235;SDS011;40151;43.606;1.472;2023-02-21T11:55:57;9.55;;;6.40;;
54235;SDS011;40151;43.606;1.472;2023-02-21T11:58:29;7.13;;;5.50;;
54235;SDS011;40151;43.606;1.472;2023-02-21T12:01:03;8.30;;;5.55;;
54235;SDS011;40151;43.606;1.472;2023-02-21T12:11:21;8.45;;;5.95;;
54235;SDS011;40151;43.606;1.472;2023-02-21T12:14:23;9.65;;;6.93;;
54235;SDS011;40151;43.606;1.472;2023-02-21T12:17:10;9.98;;;6.35;;
54235;SDS011;40151;43.606;1.472;2023-02-21T12:22:58;9.77;;;6.28;;
54235;SDS011;40151;43.606;1.472;2023-02-21T12:25:34;9.90;;;6.03;;
54235;SDS011;40151;43.606;1.472;2023-02-21T12:36:32;8.25;;;6.25;;
54235;SDS011;40151;43.606;1.472;2023-02-21T12:41:39;9.55;;;6.05;;
54235;SDS011;40151;43.606;1.472;2023-02-21T12:47:03;8.32;;;6.05;;
54235;SDS011;40151;43.606;1.472;2023-02-21T12:55:20;7.88;;;5.38;;
54235;SDS011;40151;43.606;1.472;2023-02-21T12:57:50;8.13;;;6.03;;
54235;SDS011;40151;43.606;1.472;2023-02-21T13:00:34;8.75;;;6.53;;
54235;SDS011;40151;43.606;1.472;2023-02-21T13:05:47;8.98;;;5.97;;
54235;SDS011;40151;43.606;1.472;2023-02-21T13:11:17;9.15;;;7.18;;
54235;SDS011;40151;43.606;1.472;2023-02-21T13:13:49;11.82;;;8.43;;
54235;SDS011;40151;43.606;1.472;2023-02-21T13:16:15;13.85;;;8.55;;
54235;SDS011;40151;43.606;1.472;2023-02-21T13:18:46;16.45;;;9.32;;
54235;SDS011;40151;43.606;1.472;2023-02-21T13:24:14;17.98;;;10.07;;
54235;SDS011;40151;43.606;1.472;2023-02-21T13:29:33;18.40;;;11.13;;
54235;SDS011;40151;43.606;1.472;2023-02-21T13:34:35;25.73;;;12.05;;
54235;SDS011;40151;43.606;1.472;2023-02-21T13:37:04;21.13;;;12.32;;
54235;SDS011;40151;43.606;1.472;2023-02-21T13:39:32;24.70;;;11.90;;
54235;SDS011;40151;43.606;1.472;2023-02-21T13:44:35;22.65;;;11.63;;
54235;SDS011;40151;43.606;1.472;2023-02-21T13:47:11;21.23;;;11.98;;
54235;SDS011;40151;43.606;1.472;2023-02-21T13:49:55;22.23;;;12.52;;
54235;SDS011;40151;43.606;1.472;2023-02-21T13:55:41;26.15;;;12.70;;
54235;SDS011;40151;43.606;1.472;2023-02-21T13:57:46;25.17;;;13.38;;
54235;SDS011;40151;43.606;1.472;2023-02-21T14:05:25;28.35;;;13.77;;
54235;SDS011;40151;43.606;1.472;2023-02-21T14:10:52;23.23;;;12.13;;
54235;SDS011;40151;43.606;1.472;2023-02-21T14:13:39;22.30;;;13.40;;
54235;SDS011;40151;43.606;1.472;2023-02-21T14:21:09;18.92;;;11.70;;
54235;SDS011;40151;43.606;1.472;2023-02-21T14:23:40;20.60;;;12.35;;
54235;SDS011;40151;43.606;1.472;2023-02-21T14:26:13;21.55;;;11.25;;
54235;SDS011;40151;43.606;1.472;2023-02-21T14:34:18;16.60;;;10.23;;
54235;SDS011;40151;43.606;1.472;2023-02-21T14:36:47;16.42;;;9.88;;
54235;SDS011;40151;43.606;1.472;2023-02-21T14:39:15;15.55;;;9.07;;
54235;SDS011;40151;43.606;1.472;2023-02-21T14:52:23;15.50;;;9.48;;
54235;SDS011;40151;43.606;1.472;2023-02-21T14:57:51;16.00;;;9.18;;
54235;SDS011;40151;43.606;1.472;2023-02-21T15:00:19;16.55;;;9.63;;
54235;SDS011;40151;43.606;1.472;2023-02-21T15:03:03;15.63;;;8.55;;
54235;SDS011;40151;43.606;1.472;2023-02-21T15:08:24;13.02;;;8.85;;
54235;SDS011;40151;43.606;1.472;2023-02-21T15:10:52;13.35;;;8.80;;
54235;SDS011;40151;43.606;1.472;2023-02-21T15:13:27;13.23;;;8.60;;
54235;SDS011;40151;43.606;1.472;2023-02-21T15:15:59;12.57;;;8.45;;
54235;SDS011;40151;43.606;1.472;2023-02-21T15:18:28;15.00;;;9.30;;
54235;SDS011;40151;43.606;1.472;2023-02-21T15:23:43;14.90;;;8.27;;
54235;SDS011;40151;43.606;1.472;2023-02-21T15:26:26;14.57;;;7.90;;
54235;SDS011;40151;43.606;1.472;2023-02-21T15:31:50;14.48;;;8.77;;
54235;SDS011;40151;43.606;1.472;2023-02-21T15:34:19;11.65;;;8.32;;
54235;SDS011;40151;43.606;1.472;2023-02-21T15:36:48;12.43;;;8.20;;
54235;SDS011;40151;43.606;1.472;2023-02-21T15:41:54;12.60;;;8.07;;
54235;SDS011;40151;43.606;1.472;2023-02-21T15:44:28;12.80;;;7.97;;
54235;SDS011;40151;43.606;1.472;2023-02-21T15:49:27;11.30;;;7.70;;
54235;SDS011;40151;43.606;1.472;2023-02-21T15:52:00;12.75;;;8.63;;
54235;SDS011;40151;43.606;1.472;2023-02-21T15:54:34;12.50;;;7.35;;
54235;SDS011;40151;43.606;1.472;2023-02-21T15:59:35;10.45;;;7.68;;
54235;SDS011;40151;43.606;1.472;2023-02-21T16:04:39;11.63;;;7.25;;
54235;SDS011;40151;43.606;1.472;2023-02-21T16:07:16;12.02;;;7.40;;
54235;SDS011;40151;43.606;1.472;2023-02-21T16:09:47;9.95;;;6.90;;
54235;SDS011;40151;43.606;1.472;2023-02-21T16:19:37;9.50;;;6.47;;
54235;SDS011;40151;43.606;1.472;2023-02-21T16:22:12;11.68;;;6.90;;
54235;SDS011;40151;43.606;1.472;2023-02-21T16:24:47;9.52;;;6.95;;
54235;SDS011;40151;43.606;1.472;2023-02-21T16:27:14;8.98;;;6.53;;
54235;SDS011;40151;43.606;1.472;2023-02-21T16:29:41;11.27;;;7.20;;
54235;SDS011;40151;43.606;1.472;2023-02-21T16:32:14;10.15;;;6.70;;
54235;SDS011;40151;43.606;1.472;2023-02-21T16:34:42;9.77;;;7.63;;
54235;SDS011;40151;43.606;1.472;2023-02-21T16:37:09;9.95;;;7.00;;
54235;SDS011;40151;43.606;1.472;2023-02-21T16:39:36;10.88;;;6.88;;
54235;SDS011;40151;43.606;1.472;2023-02-21T16:42:02;10.07;;;7.20;;
54235;SDS011;40151;43.606;1.472;2023-02-21T16:44:28;10.90;;;6.95;;
54235;SDS011;40151;43.606;1.472;2023-02-21T16:46:53;10.65;;;6.88;;
54235;SDS011;40151;43.606;1.472;2023-02-21T16:49:19;9.70;;;7.00;;
54235;SDS011;40151;43.606;1.472;2023-02-21T16:51:45;10.45;;;6.78;;
54235;SDS011;40151;43.606;1.472;2023-02-21T16:54:11;9.82;;;7.03;;
54235;SDS011;40151;43.606;1.472;2023-02-21T16:56:38;10.15;;;6.32;;
54235;SDS011;40151;43.606;1.472;2023-02-21T16:59:09;10.20;;;7.10;;
54235;SDS011;40151;43.606;1.472;2023-02-21T17:01:37;9.23;;;7.00;;
54235;SDS011;40151;43.606;1.472;2023-02-21T17:04:04;9.88;;;7.15;;
54235;SDS011;40151;43.606;1.472;2023-02-21T17:06:31;8.25;;;6.90;;
54235;SDS011;40151;43.606;1.472;2023-02-21T17:08:58;10.25;;;7.55;;
54235;SDS011;40151;43.606;1.472;2023-02-21T17:11:24;10.00;;;7.35;;
54235;SDS011;40151;43.606;1.472;2023-02-21T17:13:50;10.48;;;7.15;;
54235;SDS011;40151;43.606;1.472;2023-02-21T17:16:17;9.68;;;7.55;;
54235;SDS011;40151;43.606;1.472;2023-02-21T17:18:43;10.75;;;6.95;;
54235;SDS011;40151;43.606;1.472;2023-02-21T17:21:09;8.18;;;6.72;;
54235;SDS011;40151;43.606;1.472;2023-02-21T17:23:35;11.85;;;7.15;;
54235;SDS011;40151;43.606;1.472;2023-02-21T17:26:01;9.48;;;7.22;;
54235;SDS011;40151;43.606;1.472;2023-02-21T17:28:27;9.95;;;7.38;;
54235;SDS011;40151;43.606;1.472;2023-02-21T17:30:53;10.25;;;7.35;;
54235;SDS011;40151;43.606;1.472;2023-02-21T17:33:18;9.95;;;7.35;;
54235;SDS011;40151;43.606;1.472;2023-02-21T17:35:43;8.50;;;6.63;;
54235;SDS011;40151;43.606;1.472;2023-02-21T17:38:09;9.00;;;6.85;;
54235;SDS011;40151;43.606;1.472;2023-02-21T17:40:34;9.48;;;6.95;;
54235;SDS011;40151;43.606;1.472;2023-02-21T17:43:00;8.07;;;6.47;;
54235;SDS011;40151;43.606;1.472;2023-02-21T17:45:25;9.25;;;6.35;;
54235;SDS011;40151;43.606;1.472;2023-02-21T17:47:51;8.95;;;6.32;;
54235;SDS011;40151;43.606;1.472;2023-02-21T17:50:20;8.75;;;6.60;;
54235;SDS011;40151;43.606;1.472;2023-02-21T17:52:45;9.02;;;6.65;;
54235;SDS011;40151;43.606;1.472;2023-02-21T17:55:16;9.38;;;7.03;;
54235;SDS011;40151;43.606;1.472;2023-02-21T17:57:43;8.48;;;6.22;;
54235;SDS011;40151;43.606;1.472;2023-02-21T18:00:19;8.95;;;6.47;;
54235;SDS011;40151;43.606;1.472;2023-02-21T18:02:48;10.70;;;6.68;;
54235;SDS011;40151;43.606;1.472;2023-02-21T18:05:15;9.13;;;6.50;;
54235;SDS011;40151;43.606;1.472;2023-02-21T18:07:44;9.43;;;6.70;;
54235;SDS011;40151;43.606;1.472;2023-02-21T18:10:11;7.78;;;5.97;;
54235;SDS011;40151;43.606;1.472;2023-02-21T18:12:36;10.65;;;7.15;;
54235;SDS011;40151;43.606;1.472;2023-02-21T18:15:02;8.90;;;6.18;;
54235;SDS011;40151;43.606;1.472;2023-02-21T18:17:27;8.07;;;6.28;;
54235;SDS011;40151;43.606;1.472;2023-02-21T18:19:53;9.20;;;6.97;;
54235;SDS011;40151;43.606;1.472;2023-02-21T18:22:18;9.25;;;6.47;;
54235;SDS011;40151;43.606;1.472;2023-02-21T18:24:43;10.60;;;6.75;;